sensor_id;sensor_type;location;lat;lon;timestamp;P1;durP1;ratioP1;P2;durP2;ratioP2
5460;SDS011;2753;49.196;8.286;2023-02-28T00:00:48;2.67;;;2.20;;
5460;SDS011;2753;49.196;8.286;2023-02-28T00:03:13;2.63;;;2.20;;
5460;SDS011;2753;49.196;8.286;2023-02-28T00:05:39;5.03;;;3.80;;
5460;SDS011;2753;49.196;8.286;2023-02-28T00:08:06;2.77;;;2.20;;
5460;SDS011;2753;49.196;8.286;2023-02-28T00:10:32;6.67;;;2.77;;
5460;SDS011;2753;49.196;8.286;2023-02-28T00:13:02;2.50;;;2.30;;
5460;SDS011;2753;49.196;8.286;2023-02-28T00:15:30;5.07;;;3.10;;
5460;SDS011;2753;49.196;8.286;2023-02-28T00:17:56;3.50;;;2.00;;
5460;SDS011;2753;49.196;8.286;2023-02-28T00:20:22;5.33;;;2.03;;
5460;SDS011;2753;49.196;8.286;2023-02-28T00:22:49;3.17;;;2.40;;
5460;SDS011;2753;49.196;8.286;2023-02-28T00:25:17;2.03;;;1.73;;
5460;SDS011;2753;49.196;8.286;2023-02-28T00:27:46;2.80;;;2.13;;
5460;SDS011;2753;49.196;8.286;2023-02-28T00:30:14;2.17;;;2.03;;
5460;SDS011;2753;49.196;8.286;2023-02-28T00:32:41;2.23;;;2.03;;
5460;SDS011;2753;49.196;8.286;2023-02-28T00:35:07;3.73;;;1.90;;
5460;SDS011;2753;49.196;8.286;2023-02-28T00:37:34;4.47;;;2.70;;
5460;SDS011;2753;49.196;8.286;2023-02-28T00:39:59;2.07;;;1.83;;
5460;SDS011;2753;49.196;8.286;2023-02-28T00:42:25;2.70;;;1.83;;
5460;SDS011;2753;49.196;8.286;2023-02-28T00:44:51;4.93;;;3.00;;
5460;SDS011;2753;49.196;8.286;2023-02-28T00:47:17;7.60;;;2.00;;
5460;SDS011;2753;49.196;8.286;2023-02-28T00:49:42;4.43;;;1.87;;
5460;SDS011;2753;49.196;8.286;2023-02-28T00:52:08;2.30;;;1.57;;
5460;SDS011;2753;49.196;8.286;2023-02-28T00:54:34;6.33;;;2.60;;
5460;SDS011;2753;49.196;8.286;2023-02-28T00:57:00;2.23;;;1.70;;
5460;SDS011;2753;49.196;8.286;2023-02-28T00:59:26;2.20;;;1.60;;
5460;SDS011;2753;49.196;8.286;2023-02-28T01:01:51;3.83;;;2.00;;
5460;SDS011;2753;49.196;8.286;2023-02-28T01:04:17;2.30;;;1.90;;
5460;SDS011;2753;49.196;8.286;2023-02-28T01:06:43;3.43;;;2.10;;
5460;SDS011;2753;49.196;8.286;2023-02-28T01:09:09;3.17;;;2.10;;
5460;SDS011;2753;49.196;8.286;2023-02-28T01:11:35;2.50;;;2.03;;
5460;SDS011;2753;49.196;8.286;2023-02-28T01:14:01;1.80;;;1.70;;
5460;SDS011;2753;49.196;8.286;2023-02-28T01:16:27;4.37;;;2.10;;
5460;SDS011;2753;49.196;8.286;2023-02-28T01:18:53;2.30;;;2.10;;
5460;SDS011;2753;49.196;8.286;2023-02-28T01:21:19;1.67;;;1.50;;
5460;SDS011;2753;49.196;8.286;2023-02-28T01:23:46;2.90;;;1.73;;
5460;SDS011;2753;49.196;8.286;2023-02-28T01:26:22;2.30;;;1.50;;
5460;SDS011;2753;49.196;8.286;2023-02-28T01:28:48;1.87;;;1.63;;
5460;SDS011;2753;49.196;8.286;2023-02-28T01:31:15;3.30;;;1.30;;
5460;SDS011;2753;49.196;8.286;2023-02-28T01:33:41;4.23;;;1.83;;
5460;SDS011;2753;49.196;8.286;2023-02-28T01:36:09;4.73;;;1.80;;
5460;SDS011;2753;49.196;8.286;2023-02-28T01:38:37;16.23;;;4.80;;
5460;SDS011;2753;49.196;8.286;2023-02-28T01:41:03;1.37;;;1.30;;
5460;SDS011;2753;49.196;8.286;2023-02-28T01:43:31;3.10;;;1.37;;
5460;SDS011;2753;49.196;8.286;2023-02-28T01:46:19;1.63;;;1.47;;
5460;SDS011;2753;49.196;8.286;2023-02-28T01:48:49;3.67;;;1.63;;
5460;SDS011;2753;49.196;8.286;2023-02-28T01:51:24;2.30;;;2.00;;
5460;SDS011;2753;49.196;8.286;2023-02-28T01:53:56;1.97;;;1.50;;
5460;SDS011;2753;49.196;8.286;2023-02-28T01:56:28;3.33;;;1.70;;
5460;SDS011;2753;49.196;8.286;2023-02-28T01:58:57;2.17;;;1.97;;
5460;SDS011;2753;49.196;8.286;2023-02-28T02:01:23;2.43;;;1.90;;
5460;SDS011;2753;49.196;8.286;2023-02-28T02:03:53;3.47;;;2.37;;
5460;SDS011;2753;49.196;8.286;2023-02-28T02:07:02;2.57;;;2.37;;
5460;SDS011;2753;49.196;8.286;2023-02-28T02:09:11;7.63;;;3.63;;
5460;SDS011;2753;49.196;8.286;2023-02-28T02:11:37;2.70;;;2.10;;
5460;SDS011;2753;49.196;8.286;2023-02-28T02:25:29;4.93;;;3.70;;
5460;SDS011;2753;49.196;8.286;2023-02-28T02:30:43;7.50;;;4.13;;
5460;SDS011;2753;49.196;8.286;2023-02-28T02:35:54;6.17;;;2.83;;
5460;SDS011;2753;49.196;8.286;2023-02-28T02:41:24;6.17;;;2.90;;
5460;SDS011;2753;49.196;8.286;2023-02-28T02:46:44;2.17;;;2.00;;
5460;SDS011;2753;49.196;8.286;2023-02-28T02:49:19;2.00;;;1.90;;
5460;SDS011;2753;49.196;8.286;2023-02-28T02:51:52;5.07;;;2.23;;
5460;SDS011;2753;49.196;8.286;2023-02-28T02:54:24;3.17;;;2.10;;
5460;SDS011;2753;49.196;8.286;2023-02-28T02:56:59;2.97;;;2.30;;
5460;SDS011;2753;49.196;8.286;2023-02-28T02:59:30;8.23;;;2.07;;
5460;SDS011;2753;49.196;8.286;2023-02-28T03:01:57;2.27;;;2.07;;
5460;SDS011;2753;49.196;8.286;2023-02-28T03:04:27;3.83;;;2.30;;
5460;SDS011;2753;49.196;8.286;2023-02-28T03:06:57;4.33;;;2.70;;
5460;SDS011;2753;49.196;8.286;2023-02-28T03:09:23;6.20;;;2.27;;
5460;SDS011;2753;49.196;8.286;2023-02-28T03:11:50;5.57;;;2.13;;
5460;SDS011;2753;49.196;8.286;2023-02-28T03:27:30;3.27;;;2.40;;
5460;SDS011;2753;49.196;8.286;2023-02-28T03:30:15;4.17;;;3.00;;
5460;SDS011;2753;49.196;8.286;2023-02-28T03:33:20;3.30;;;2.67;;
5460;SDS011;2753;49.196;8.286;2023-02-28T03:36:09;2.47;;;2.27;;
5460;SDS011;2753;49.196;8.286;2023-02-28T03:38:45;5.63;;;2.47;;
5460;SDS011;2753;49.196;8.286;2023-02-28T03:41:23;3.10;;;2.43;;
5460;SDS011;2753;49.196;8.286;2023-02-28T03:43:55;3.83;;;3.03;;
5460;SDS011;2753;49.196;8.286;2023-02-28T03:46:25;3.30;;;2.60;;
5460;SDS011;2753;49.196;8.286;2023-02-28T03:49:07;6.90;;;3.40;;
5460;SDS011;2753;49.196;8.286;2023-02-28T03:51:40;3.73;;;3.07;;
5460;SDS011;2753;49.196;8.286;2023-02-28T03:54:09;2.70;;;2.40;;
5460;SDS011;2753;49.196;8.286;2023-02-28T03:56:43;6.27;;;2.67;;
5460;SDS011;2753;49.196;8.286;2023-02-28T03:59:34;3.40;;;2.43;;
5460;SDS011;2753;49.196;8.286;2023-02-28T04:02:12;5.27;;;2.77;;
5460;SDS011;2753;49.196;8.286;2023-02-28T04:04:37;3.83;;;2.90;;
5460;SDS011;2753;49.196;8.286;2023-02-28T04:07:07;3.03;;;2.60;;
5460;SDS011;2753;49.196;8.286;2023-02-28T04:09:35;2.87;;;2.40;;
5460;SDS011;2753;49.196;8.286;2023-02-28T04:12:01;7.13;;;3.00;;
5460;SDS011;2753;49.196;8.286;2023-02-28T04:14:27;4.37;;;2.70;;
5460;SDS011;2753;49.196;8.286;2023-02-28T04:16:53;3.50;;;3.20;;
5460;SDS011;2753;49.196;8.286;2023-02-28T04:19:19;3.80;;;3.27;;
5460;SDS011;2753;49.196;8.286;2023-02-28T04:21:45;4.47;;;3.30;;
5460;SDS011;2753;49.196;8.286;2023-02-28T04:24:14;3.70;;;3.07;;
5460;SDS011;2753;49.196;8.286;2023-02-28T04:26:44;3.63;;;2.37;;
5460;SDS011;2753;49.196;8.286;2023-02-28T04:29:12;2.70;;;2.50;;
5460;SDS011;2753;49.196;8.286;2023-02-28T04:31:39;5.97;;;3.23;;
5460;SDS011;2753;49.196;8.286;2023-02-28T04:34:05;5.57;;;2.50;;
5460;SDS011;2753;49.196;8.286;2023-02-28T04:36:31;5.47;;;3.10;;
5460;SDS011;2753;49.196;8.286;2023-02-28T04:38:57;3.73;;;3.23;;
5460;SDS011;2753;49.196;8.286;2023-02-28T04:41:23;5.97;;;3.07;;
5460;SDS011;2753;49.196;8.286;2023-02-28T04:43:50;4.47;;;3.20;;
5460;SDS011;2753;49.196;8.286;2023-02-28T04:46:17;7.27;;;3.27;;
5460;SDS011;2753;49.196;8.286;2023-02-28T04:48:43;7.80;;;3.50;;
5460;SDS011;2753;49.196;8.286;2023-02-28T04:51:10;5.37;;;3.53;;
5460;SDS011;2753;49.196;8.286;2023-02-28T04:53:38;9.73;;;3.53;;
5460;SDS011;2753;49.196;8.286;2023-02-28T04:56:05;4.07;;;3.70;;
5460;SDS011;2753;49.196;8.286;2023-02-28T04:58:31;10.23;;;3.80;;
5460;SDS011;2753;49.196;8.286;2023-02-28T05:03:43;7.40;;;3.83;;
5460;SDS011;2753;49.196;8.286;2023-02-28T05:06:10;7.33;;;3.73;;
5460;SDS011;2753;49.196;8.286;2023-02-28T05:08:37;4.50;;;3.57;;
5460;SDS011;2753;49.196;8.286;2023-02-28T05:11:03;7.80;;;3.87;;
5460;SDS011;2753;49.196;8.286;2023-02-28T05:13:29;4.57;;;3.50;;
5460;SDS011;2753;49.196;8.286;2023-02-28T05:15:55;6.87;;;4.30;;
5460;SDS011;2753;49.196;8.286;2023-02-28T05:18:21;5.10;;;3.40;;
5460;SDS011;2753;49.196;8.286;2023-02-28T05:20:47;5.27;;;3.90;;
5460;SDS011;2753;49.196;8.286;2023-02-28T05:23:13;7.67;;;3.73;;
5460;SDS011;2753;49.196;8.286;2023-02-28T05:25:39;3.60;;;3.27;;
5460;SDS011;2753;49.196;8.286;2023-02-28T05:28:06;5.37;;;4.47;;
5460;SDS011;2753;49.196;8.286;2023-02-28T05:30:32;9.83;;;3.83;;
5460;SDS011;2753;49.196;8.286;2023-02-28T05:32:59;4.63;;;3.50;;
5460;SDS011;2753;49.196;8.286;2023-02-28T05:35:25;6.77;;;4.40;;
5460;SDS011;2753;49.196;8.286;2023-02-28T05:37:51;8.93;;;4.20;;
5460;SDS011;2753;49.196;8.286;2023-02-28T05:40:17;8.40;;;4.43;;
5460;SDS011;2753;49.196;8.286;2023-02-28T05:42:45;6.97;;;4.10;;
5460;SDS011;2753;49.196;8.286;2023-02-28T05:45:11;7.23;;;4.30;;
5460;SDS011;2753;49.196;8.286;2023-02-28T05:47:37;8.07;;;4.70;;
5460;SDS011;2753;49.196;8.286;2023-02-28T05:50:02;4.93;;;3.70;;
5460;SDS011;2753;49.196;8.286;2023-02-28T05:52:29;6.30;;;4.30;;
5460;SDS011;2753;49.196;8.286;2023-02-28T05:54:55;5.20;;;4.07;;
5460;SDS011;2753;49.196;8.286;2023-02-28T05:57:21;3.97;;;3.10;;
5460;SDS011;2753;49.196;8.286;2023-02-28T05:59:47;5.93;;;4.07;;
5460;SDS011;2753;49.196;8.286;2023-02-28T06:02:14;9.63;;;4.23;;
5460;SDS011;2753;49.196;8.286;2023-02-28T06:04:41;6.73;;;4.13;;
5460;SDS011;2753;49.196;8.286;2023-02-28T06:07:08;5.27;;;3.63;;
5460;SDS011;2753;49.196;8.286;2023-02-28T06:09:34;5.97;;;3.70;;
5460;SDS011;2753;49.196;8.286;2023-02-28T06:12:01;6.03;;;4.63;;
5460;SDS011;2753;49.196;8.286;2023-02-28T06:14:30;7.50;;;4.70;;
5460;SDS011;2753;49.196;8.286;2023-02-28T06:16:57;8.80;;;4.83;;
5460;SDS011;2753;49.196;8.286;2023-02-28T06:19:23;7.10;;;4.33;;
5460;SDS011;2753;49.196;8.286;2023-02-28T06:21:52;7.07;;;4.73;;
5460;SDS011;2753;49.196;8.286;2023-02-28T06:24:18;9.80;;;4.93;;
5460;SDS011;2753;49.196;8.286;2023-02-28T06:26:45;5.93;;;4.50;;
5460;SDS011;2753;49.196;8.286;2023-02-28T06:29:10;12.97;;;5.40;;
5460;SDS011;2753;49.196;8.286;2023-02-28T06:31:36;6.17;;;3.83;;
5460;SDS011;2753;49.196;8.286;2023-02-28T06:34:03;7.03;;;4.13;;
5460;SDS011;2753;49.196;8.286;2023-02-28T06:36:29;10.73;;;5.87;;
5460;SDS011;2753;49.196;8.286;2023-02-28T06:38:55;8.10;;;5.20;;
5460;SDS011;2753;49.196;8.286;2023-02-28T06:41:23;6.60;;;4.43;;
5460;SDS011;2753;49.196;8.286;2023-02-28T06:43:50;8.50;;;5.40;;
5460;SDS011;2753;49.196;8.286;2023-02-28T06:46:15;10.13;;;5.47;;
5460;SDS011;2753;49.196;8.286;2023-02-28T06:48:42;12.30;;;5.00;;
5460;SDS011;2753;49.196;8.286;2023-02-28T06:51:10;8.17;;;4.30;;
5460;SDS011;2753;49.196;8.286;2023-02-28T06:53:39;9.30;;;3.87;;
5460;SDS011;2753;49.196;8.286;2023-02-28T06:56:06;9.53;;;4.97;;
5460;SDS011;2753;49.196;8.286;2023-02-28T06:58:37;6.00;;;4.67;;
5460;SDS011;2753;49.196;8.286;2023-02-28T07:01:04;9.23;;;4.60;;
5460;SDS011;2753;49.196;8.286;2023-02-28T07:03:30;11.30;;;4.70;;
5460;SDS011;2753;49.196;8.286;2023-02-28T07:05:56;15.50;;;6.30;;
5460;SDS011;2753;49.196;8.286;2023-02-28T07:08:23;9.97;;;5.40;;
5460;SDS011;2753;49.196;8.286;2023-02-28T07:10:52;11.73;;;4.87;;
5460;SDS011;2753;49.196;8.286;2023-02-28T07:13:21;7.57;;;4.53;;
5460;SDS011;2753;49.196;8.286;2023-02-28T07:16:01;7.10;;;4.70;;
5460;SDS011;2753;49.196;8.286;2023-02-28T07:18:30;6.70;;;4.70;;
5460;SDS011;2753;49.196;8.286;2023-02-28T07:20:56;8.63;;;5.07;;
5460;SDS011;2753;49.196;8.286;2023-02-28T07:23:22;7.50;;;4.70;;
5460;SDS011;2753;49.196;8.286;2023-02-28T07:25:49;13.33;;;4.50;;
5460;SDS011;2753;49.196;8.286;2023-02-28T07:28:15;6.97;;;5.03;;
5460;SDS011;2753;49.196;8.286;2023-02-28T07:30:41;8.10;;;5.00;;
5460;SDS011;2753;49.196;8.286;2023-02-28T07:33:07;6.60;;;4.63;;
5460;SDS011;2753;49.196;8.286;2023-02-28T07:35:32;9.20;;;5.00;;
5460;SDS011;2753;49.196;8.286;2023-02-28T07:37:58;13.40;;;5.90;;
5460;SDS011;2753;49.196;8.286;2023-02-28T07:40:24;12.10;;;6.47;;
5460;SDS011;2753;49.196;8.286;2023-02-28T07:42:50;8.33;;;5.73;;
5460;SDS011;2753;49.196;8.286;2023-02-28T07:45:16;6.93;;;5.00;;
5460;SDS011;2753;49.196;8.286;2023-02-28T07:47:42;7.70;;;5.13;;
5460;SDS011;2753;49.196;8.286;2023-02-28T07:50:09;7.10;;;5.30;;
5460;SDS011;2753;49.196;8.286;2023-02-28T07:52:37;11.33;;;5.43;;
5460;SDS011;2753;49.196;8.286;2023-02-28T07:55:04;11.40;;;6.23;;
5460;SDS011;2753;49.196;8.286;2023-02-28T07:57:31;11.03;;;5.70;;
5460;SDS011;2753;49.196;8.286;2023-02-28T07:59:57;8.40;;;6.00;;
5460;SDS011;2753;49.196;8.286;2023-02-28T08:02:22;6.77;;;5.53;;
5460;SDS011;2753;49.196;8.286;2023-02-28T08:04:48;6.97;;;4.50;;
5460;SDS011;2753;49.196;8.286;2023-02-28T08:07:14;11.53;;;5.43;;
5460;SDS011;2753;49.196;8.286;2023-02-28T08:09:41;7.67;;;3.97;;
5460;SDS011;2753;49.196;8.286;2023-02-28T08:12:08;10.43;;;4.50;;
5460;SDS011;2753;49.196;8.286;2023-02-28T08:14:35;7.10;;;5.03;;
5460;SDS011;2753;49.196;8.286;2023-02-28T08:17:00;12.60;;;5.17;;
5460;SDS011;2753;49.196;8.286;2023-02-28T08:19:26;8.90;;;5.20;;
5460;SDS011;2753;49.196;8.286;2023-02-28T08:21:53;11.43;;;5.13;;
5460;SDS011;2753;49.196;8.286;2023-02-28T08:24:18;10.07;;;4.57;;
5460;SDS011;2753;49.196;8.286;2023-02-28T08:26:44;6.10;;;5.03;;
5460;SDS011;2753;49.196;8.286;2023-02-28T08:29:10;13.57;;;5.63;;
5460;SDS011;2753;49.196;8.286;2023-02-28T08:31:35;6.93;;;4.97;;
5460;SDS011;2753;49.196;8.286;2023-02-28T08:34:05;9.53;;;5.60;;
5460;SDS011;2753;49.196;8.286;2023-02-28T08:36:32;7.90;;;5.30;;
5460;SDS011;2753;49.196;8.286;2023-02-28T08:38:57;8.10;;;5.33;;
5460;SDS011;2753;49.196;8.286;2023-02-28T08:41:24;10.27;;;6.00;;
5460;SDS011;2753;49.196;8.286;2023-02-28T08:43:51;9.23;;;5.40;;
5460;SDS011;2753;49.196;8.286;2023-02-28T08:46:17;10.50;;;5.27;;
5460;SDS011;2753;49.196;8.286;2023-02-28T08:48:43;11.73;;;6.10;;
5460;SDS011;2753;49.196;8.286;2023-02-28T08:51:15;10.27;;;6.10;;
5460;SDS011;2753;49.196;8.286;2023-02-28T08:53:44;8.03;;;5.70;;
5460;SDS011;2753;49.196;8.286;2023-02-28T08:56:14;10.57;;;5.80;;
5460;SDS011;2753;49.196;8.286;2023-02-28T08:58:45;10.50;;;5.40;;
5460;SDS011;2753;49.196;8.286;2023-02-28T09:03:38;5.17;;;4.30;;
5460;SDS011;2753;49.196;8.286;2023-02-28T09:06:05;7.83;;;5.93;;
5460;SDS011;2753;49.196;8.286;2023-02-28T09:08:32;9.83;;;5.63;;
5460;SDS011;2753;49.196;8.286;2023-02-28T09:10:58;12.40;;;5.70;;
5460;SDS011;2753;49.196;8.286;2023-02-28T09:13:24;9.90;;;4.67;;
5460;SDS011;2753;49.196;8.286;2023-02-28T09:15:52;10.03;;;6.23;;
5460;SDS011;2753;49.196;8.286;2023-02-28T09:18:18;7.77;;;4.53;;
5460;SDS011;2753;49.196;8.286;2023-02-28T09:20:44;14.10;;;3.73;;
5460;SDS011;2753;49.196;8.286;2023-02-28T09:23:10;8.27;;;3.37;;
5460;SDS011;2753;49.196;8.286;2023-02-28T09:25:37;12.43;;;5.83;;
5460;SDS011;2753;49.196;8.286;2023-02-28T09:28:03;16.20;;;9.00;;
5460;SDS011;2753;49.196;8.286;2023-02-28T09:30:29;12.70;;;7.10;;
5460;SDS011;2753;49.196;8.286;2023-02-28T09:32:55;10.47;;;5.73;;
5460;SDS011;2753;49.196;8.286;2023-02-28T09:35:21;10.23;;;5.37;;
5460;SDS011;2753;49.196;8.286;2023-02-28T09:37:49;13.07;;;7.90;;
5460;SDS011;2753;49.196;8.286;2023-02-28T09:40:16;11.33;;;5.93;;
5460;SDS011;2753;49.196;8.286;2023-02-28T09:42:47;8.13;;;4.70;;
5460;SDS011;2753;49.196;8.286;2023-02-28T09:47:54;10.50;;;5.40;;
5460;SDS011;2753;49.196;8.286;2023-02-28T09:52:52;6.93;;;5.17;;
5460;SDS011;2753;49.196;8.286;2023-02-28T09:55:28;10.43;;;6.40;;
5460;SDS011;2753;49.196;8.286;2023-02-28T09:57:59;10.07;;;4.47;;
5460;SDS011;2753;49.196;8.286;2023-02-28T10:00:31;9.60;;;6.93;;
5460;SDS011;2753;49.196;8.286;2023-02-28T10:06:04;10.83;;;5.50;;
5460;SDS011;2753;49.196;8.286;2023-02-28T10:11:19;6.20;;;3.93;;
5460;SDS011;2753;49.196;8.286;2023-02-28T10:14:49;8.23;;;6.40;;
5460;SDS011;2753;49.196;8.286;2023-02-28T10:19:33;17.27;;;6.57;;
5460;SDS011;2753;49.196;8.286;2023-02-28T10:22:22;10.40;;;4.53;;
5460;SDS011;2753;49.196;8.286;2023-02-28T10:24:56;6.57;;;4.90;;
5460;SDS011;2753;49.196;8.286;2023-02-28T10:27:31;10.73;;;6.30;;
5460;SDS011;2753;49.196;8.286;2023-02-28T10:30:01;10.63;;;6.97;;
5460;SDS011;2753;49.196;8.286;2023-02-28T10:32:31;8.17;;;5.20;;
5460;SDS011;2753;49.196;8.286;2023-02-28T10:37:46;14.33;;;7.80;;
5460;SDS011;2753;49.196;8.286;2023-02-28T10:42:56;9.53;;;6.57;;
5460;SDS011;2753;49.196;8.286;2023-02-28T10:45:22;9.03;;;5.73;;
5460;SDS011;2753;49.196;8.286;2023-02-28T10:50:34;5.70;;;4.40;;
5460;SDS011;2753;49.196;8.286;2023-02-28T10:55:35;8.30;;;6.03;;
5460;SDS011;2753;49.196;8.286;2023-02-28T10:58:02;12.57;;;6.33;;
5460;SDS011;2753;49.196;8.286;2023-02-28T11:00:32;7.30;;;4.53;;
5460;SDS011;2753;49.196;8.286;2023-02-28T11:03:00;20.30;;;9.40;;
5460;SDS011;2753;49.196;8.286;2023-02-28T11:05:32;11.10;;;7.30;;
5460;SDS011;2753;49.196;8.286;2023-02-28T11:08:10;9.50;;;6.93;;
5460;SDS011;2753;49.196;8.286;2023-02-28T11:10:43;9.00;;;5.47;;
5460;SDS011;2753;49.196;8.286;2023-02-28T11:13:20;13.50;;;6.30;;
5460;SDS011;2753;49.196;8.286;2023-02-28T11:15:59;10.20;;;6.40;;
5460;SDS011;2753;49.196;8.286;2023-02-28T11:18:29;7.90;;;5.60;;
5460;SDS011;2753;49.196;8.286;2023-02-28T11:21:05;11.83;;;5.83;;
5460;SDS011;2753;49.196;8.286;2023-02-28T11:23:33;9.73;;;4.90;;
5460;SDS011;2753;49.196;8.286;2023-02-28T11:26:01;10.30;;;5.53;;
5460;SDS011;2753;49.196;8.286;2023-02-28T11:31:04;7.70;;;5.00;;
5460;SDS011;2753;49.196;8.286;2023-02-28T11:33:44;8.10;;;6.23;;
5460;SDS011;2753;49.196;8.286;2023-02-28T11:36:15;9.80;;;5.40;;
5460;SDS011;2753;49.196;8.286;2023-02-28T11:38:44;6.70;;;4.97;;
5460;SDS011;2753;49.196;8.286;2023-02-28T11:51:40;10.17;;;6.43;;
5460;SDS011;2753;49.196;8.286;2023-02-28T11:59:44;13.10;;;7.63;;
5460;SDS011;2753;49.196;8.286;2023-02-28T12:07:50;9.13;;;5.90;;
5460;SDS011;2753;49.196;8.286;2023-02-28T12:10:26;10.90;;;6.23;;
5460;SDS011;2753;49.196;8.286;2023-02-28T12:13:20;18.40;;;7.10;;
5460;SDS011;2753;49.196;8.286;2023-02-28T12:27:00;9.70;;;6.20;;
5460;SDS011;2753;49.196;8.286;2023-02-28T12:29:39;10.33;;;5.60;;
5460;SDS011;2753;49.196;8.286;2023-02-28T12:34:58;12.97;;;7.00;;
5460;SDS011;2753;49.196;8.286;2023-02-28T12:37:31;10.53;;;6.90;;
5460;SDS011;2753;49.196;8.286;2023-02-28T12:40:06;8.33;;;5.80;;
5460;SDS011;2753;49.196;8.286;2023-02-28T12:42:39;6.60;;;5.27;;
5460;SDS011;2753;49.196;8.286;2023-02-28T12:47:42;9.40;;;6.53;;
5460;SDS011;2753;49.196;8.286;2023-02-28T12:50:13;11.80;;;8.17;;
5460;SDS011;2753;49.196;8.286;2023-02-28T13:06:59;12.90;;;8.80;;
5460;SDS011;2753;49.196;8.286;2023-02-28T13:09:40;7.63;;;6.50;;
5460;SDS011;2753;49.196;8.286;2023-02-28T13:12:16;11.80;;;7.50;;
5460;SDS011;2753;49.196;8.286;2023-02-28T13:14:41;12.93;;;8.57;;
5460;SDS011;2753;49.196;8.286;2023-02-28T13:19:40;12.90;;;8.37;;
5460;SDS011;2753;49.196;8.286;2023-02-28T13:27:46;13.63;;;7.33;;
5460;SDS011;2753;49.196;8.286;2023-02-28T13:33:28;14.97;;;8.80;;
5460;SDS011;2753;49.196;8.286;2023-02-28T13:38:34;12.07;;;7.77;;
5460;SDS011;2753;49.196;8.286;2023-02-28T13:49:32;15.40;;;7.87;;
5460;SDS011;2753;49.196;8.286;2023-02-28T14:11:36;12.33;;;8.47;;
5460;SDS011;2753;49.196;8.286;2023-02-28T14:14:04;12.90;;;8.77;;
5460;SDS011;2753;49.196;8.286;2023-02-28T14:16:44;12.20;;;8.57;;
5460;SDS011;2753;49.196;8.286;2023-02-28T14:19:23;9.80;;;5.90;;
5460;SDS011;2753;49.196;8.286;2023-02-28T14:22:12;10.13;;;6.83;;
5460;SDS011;2753;49.196;8.286;2023-02-28T14:35:58;10.90;;;7.00;;
5460;SDS011;2753;49.196;8.286;2023-02-28T14:41:29;10.60;;;6.70;;
5460;SDS011;2753;49.196;8.286;2023-02-28T14:43:57;11.07;;;7.47;;
5460;SDS011;2753;49.196;8.286;2023-02-28T14:46:35;11.07;;;7.50;;
5460;SDS011;2753;49.196;8.286;2023-02-28T14:49:06;11.23;;;7.87;;
5460;SDS011;2753;49.196;8.286;2023-02-28T14:51:47;8.77;;;5.87;;
5460;SDS011;2753;49.196;8.286;2023-02-28T14:54:15;13.17;;;8.00;;
5460;SDS011;2753;49.196;8.286;2023-02-28T14:56:49;12.50;;;6.90;;
5460;SDS011;2753;49.196;8.286;2023-02-28T14:59:26;14.53;;;7.80;;
5460;SDS011;2753;49.196;8.286;2023-02-28T15:04:41;12.37;;;7.17;;
5460;SDS011;2753;49.196;8.286;2023-02-28T15:07:08;11.23;;;7.30;;
5460;SDS011;2753;49.196;8.286;2023-02-28T15:09:38;10.03;;;7.40;;
5460;SDS011;2753;49.196;8.286;2023-02-28T15:12:04;9.63;;;8.20;;
5460;SDS011;2753;49.196;8.286;2023-02-28T15:14:30;14.90;;;7.83;;
5460;SDS011;2753;49.196;8.286;2023-02-28T15:16:57;9.93;;;7.23;;
5460;SDS011;2753;49.196;8.286;2023-02-28T15:19:31;13.20;;;9.40;;
5460;SDS011;2753;49.196;8.286;2023-02-28T15:22:00;12.33;;;8.77;;
5460;SDS011;2753;49.196;8.286;2023-02-28T15:24:40;13.57;;;7.57;;
5460;SDS011;2753;49.196;8.286;2023-02-28T15:27:20;13.47;;;7.37;;
5460;SDS011;2753;49.196;8.286;2023-02-28T15:29:59;14.70;;;7.20;;
5460;SDS011;2753;49.196;8.286;2023-02-28T15:34:57;11.80;;;8.20;;
5460;SDS011;2753;49.196;8.286;2023-02-28T15:37:28;18.97;;;9.50;;
5460;SDS011;2753;49.196;8.286;2023-02-28T15:39:58;20.10;;;8.67;;
5460;SDS011;2753;49.196;8.286;2023-02-28T15:42:36;12.70;;;7.80;;
5460;SDS011;2753;49.196;8.286;2023-02-28T15:45:02;10.40;;;8.10;;
5460;SDS011;2753;49.196;8.286;2023-02-28T15:47:29;10.07;;;7.40;;
5460;SDS011;2753;49.196;8.286;2023-02-28T15:52:21;11.30;;;7.33;;
5460;SDS011;2753;49.196;8.286;2023-02-28T15:55:22;12.50;;;8.20;;
5460;SDS011;2753;49.196;8.286;2023-02-28T15:57:52;20.33;;;9.30;;
5460;SDS011;2753;49.196;8.286;2023-02-28T16:00:23;22.30;;;12.63;;
5460;SDS011;2753;49.196;8.286;2023-02-28T16:02:50;21.53;;;11.83;;
5460;SDS011;2753;49.196;8.286;2023-02-28T16:05:23;16.20;;;9.57;;
5460;SDS011;2753;49.196;8.286;2023-02-28T16:07:55;14.20;;;7.83;;
5460;SDS011;2753;49.196;8.286;2023-02-28T16:10:40;9.90;;;8.20;;
5460;SDS011;2753;49.196;8.286;2023-02-28T16:13:06;13.20;;;8.30;;
5460;SDS011;2753;49.196;8.286;2023-02-28T16:15:37;16.53;;;9.73;;
5460;SDS011;2753;49.196;8.286;2023-02-28T16:18:07;21.87;;;8.80;;
5460;SDS011;2753;49.196;8.286;2023-02-28T16:20:35;15.67;;;10.00;;
5460;SDS011;2753;49.196;8.286;2023-02-28T16:23:00;10.83;;;7.70;;
5460;SDS011;2753;49.196;8.286;2023-02-28T16:25:37;13.87;;;9.20;;
5460;SDS011;2753;49.196;8.286;2023-02-28T16:28:18;13.17;;;7.93;;
5460;SDS011;2753;49.196;8.286;2023-02-28T16:30:46;11.00;;;8.57;;
5460;SDS011;2753;49.196;8.286;2023-02-28T16:33:12;14.30;;;9.90;;
5460;SDS011;2753;49.196;8.286;2023-02-28T16:35:37;14.70;;;9.47;;
5460;SDS011;2753;49.196;8.286;2023-02-28T16:38:03;15.53;;;9.10;;
5460;SDS011;2753;49.196;8.286;2023-02-28T16:40:29;14.97;;;9.07;;
5460;SDS011;2753;49.196;8.286;2023-02-28T16:42:59;16.43;;;9.87;;
5460;SDS011;2753;49.196;8.286;2023-02-28T16:45:28;22.27;;;11.50;;
5460;SDS011;2753;49.196;8.286;2023-02-28T16:47:54;21.63;;;12.60;;
5460;SDS011;2753;49.196;8.286;2023-02-28T16:52:47;16.47;;;9.83;;
5460;SDS011;2753;49.196;8.286;2023-02-28T16:55:14;30.20;;;12.07;;
5460;SDS011;2753;49.196;8.286;2023-02-28T17:00:52;22.30;;;10.37;;
5460;SDS011;2753;49.196;8.286;2023-02-28T17:03:26;16.57;;;9.30;;
5460;SDS011;2753;49.196;8.286;2023-02-28T17:05:53;17.40;;;10.83;;
5460;SDS011;2753;49.196;8.286;2023-02-28T17:08:18;17.17;;;10.93;;
5460;SDS011;2753;49.196;8.286;2023-02-28T17:10:44;14.83;;;10.20;;
5460;SDS011;2753;49.196;8.286;2023-02-28T17:13:10;14.50;;;10.23;;
5460;SDS011;2753;49.196;8.286;2023-02-28T17:15:36;15.53;;;9.60;;
5460;SDS011;2753;49.196;8.286;2023-02-28T17:18:02;12.67;;;8.80;;
5460;SDS011;2753;49.196;8.286;2023-02-28T17:20:29;20.37;;;9.27;;
5460;SDS011;2753;49.196;8.286;2023-02-28T17:22:54;14.20;;;8.83;;
5460;SDS011;2753;49.196;8.286;2023-02-28T17:25:21;19.17;;;9.23;;
5460;SDS011;2753;49.196;8.286;2023-02-28T17:27:48;15.70;;;9.37;;
5460;SDS011;2753;49.196;8.286;2023-02-28T17:32:40;14.03;;;9.80;;
5460;SDS011;2753;49.196;8.286;2023-02-28T17:35:06;13.23;;;8.17;;
5460;SDS011;2753;49.196;8.286;2023-02-28T17:37:32;11.93;;;7.83;;
5460;SDS011;2753;49.196;8.286;2023-02-28T17:39:58;21.20;;;9.37;;
5460;SDS011;2753;49.196;8.286;2023-02-28T17:42:23;22.20;;;11.40;;
5460;SDS011;2753;49.196;8.286;2023-02-28T17:44:49;14.10;;;9.60;;
5460;SDS011;2753;49.196;8.286;2023-02-28T17:47:14;17.60;;;9.30;;
5460;SDS011;2753;49.196;8.286;2023-02-28T17:49:40;23.13;;;15.97;;
5460;SDS011;2753;49.196;8.286;2023-02-28T17:52:06;24.17;;;13.30;;
5460;SDS011;2753;49.196;8.286;2023-02-28T17:54:32;13.37;;;11.20;;
5460;SDS011;2753;49.196;8.286;2023-02-28T17:56:58;14.90;;;10.50;;
5460;SDS011;2753;49.196;8.286;2023-02-28T17:59:24;13.27;;;8.27;;
5460;SDS011;2753;49.196;8.286;2023-02-28T18:01:49;15.77;;;8.50;;
5460;SDS011;2753;49.196;8.286;2023-02-28T18:04:15;14.30;;;8.13;;
5460;SDS011;2753;49.196;8.286;2023-02-28T18:06:41;15.40;;;9.50;;
5460;SDS011;2753;49.196;8.286;2023-02-28T18:09:12;16.27;;;8.90;;
5460;SDS011;2753;49.196;8.286;2023-02-28T18:11:40;14.47;;;8.33;;
5460;SDS011;2753;49.196;8.286;2023-02-28T18:14:13;10.50;;;6.60;;
5460;SDS011;2753;49.196;8.286;2023-02-28T18:16:40;17.50;;;7.40;;
5460;SDS011;2753;49.196;8.286;2023-02-28T18:19:06;11.50;;;7.63;;
5460;SDS011;2753;49.196;8.286;2023-02-28T18:21:33;13.43;;;7.40;;
5460;SDS011;2753;49.196;8.286;2023-02-28T18:24:00;11.77;;;8.30;;
5460;SDS011;2753;49.196;8.286;2023-02-28T18:26:25;15.43;;;8.83;;
5460;SDS011;2753;49.196;8.286;2023-02-28T18:28:51;14.27;;;8.13;;
5460;SDS011;2753;49.196;8.286;2023-02-28T18:31:18;13.93;;;8.07;;